sensor_id;sensor_type;location;lat;lon;timestamp;P1;durP1;ratioP1;P2;durP2;ratioP2
42146;SDS011;27815;43.410;11.852;2022-11-18T00:01:22;10.95;;;6.68;;
42146;SDS011;27815;43.410;11.852;2022-11-18T00:05:25;11.45;;;6.97;;
42146;SDS011;27815;43.410;11.852;2022-11-18T00:09:28;12.50;;;6.95;;
42146;SDS011;27815;43.410;11.852;2022-11-18T00:13:31;10.77;;;6.38;;
42146;SDS011;27815;43.410;11.852;2022-11-18T00:17:53;10.02;;;4.90;;
42146;SDS011;27815;43.410;11.852;2022-11-18T00:21:56;5.40;;;3.65;;
42146;SDS011;27815;43.410;11.852;2022-11-18T00:26:07;5.97;;;2.95;;
42146;SDS011;27815;43.410;11.852;2022-11-18T00:30:12;8.40;;;3.53;;
42146;SDS011;27815;43.410;11.852;2022-11-18T00:34:15;7.93;;;3.55;;
42146;SDS011;27815;43.410;11.852;2022-11-18T00:38:19;6.35;;;3.90;;
42146;SDS011;27815;43.410;11.852;2022-11-18T00:42:22;8.13;;;4.57;;
42146;SDS011;27815;43.410;11.852;2022-11-18T00:46:43;5.85;;;3.20;;
42146;SDS011;27815;43.410;11.852;2022-11-18T00:50:50;8.05;;;3.92;;
42146;SDS011;27815;43.410;11.852;2022-11-18T00:54:53;5.25;;;3.05;;
42146;SDS011;27815;43.410;11.852;2022-11-18T00:58:56;8.00;;;3.17;;
42146;SDS011;27815;43.410;11.852;2022-11-18T01:02:59;9.93;;;4.45;;
42146;SDS011;27815;43.410;11.852;2022-11-18T01:07:03;8.68;;;3.88;;
42146;SDS011;27815;43.410;11.852;2022-11-18T01:11:06;7.63;;;4.85;;
42146;SDS011;27815;43.410;11.852;2022-11-18T01:15:28;7.53;;;4.65;;
42146;SDS011;27815;43.410;11.852;2022-11-18T01:19:31;9.35;;;5.43;;
42146;SDS011;27815;43.410;11.852;2022-11-18T01:23:34;10.65;;;5.05;;
42146;SDS011;27815;43.410;11.852;2022-11-18T01:27:37;8.02;;;4.75;;
42146;SDS011;27815;43.410;11.852;2022-11-18T01:31:40;6.85;;;3.35;;
42146;SDS011;27815;43.410;11.852;2022-11-18T01:36:03;7.03;;;4.82;;
42146;SDS011;27815;43.410;11.852;2022-11-18T01:40:07;9.35;;;5.18;;
42146;SDS011;27815;43.410;11.852;2022-11-18T01:49:13;5.38;;;3.50;;
42146;SDS011;27815;43.410;11.852;2022-11-18T01:53:24;5.35;;;3.03;;
42146;SDS011;27815;43.410;11.852;2022-11-18T01:57:29;8.63;;;3.80;;
42146;SDS011;27815;43.410;11.852;2022-11-18T02:01:33;8.20;;;4.28;;
42146;SDS011;27815;43.410;11.852;2022-11-18T02:05:36;8.30;;;3.65;;
42146;SDS011;27815;43.410;11.852;2022-11-18T02:09:41;11.25;;;4.28;;
42146;SDS011;27815;43.410;11.852;2022-11-18T02:13:45;6.93;;;3.63;;
42146;SDS011;27815;43.410;11.852;2022-11-18T02:30:56;7.18;;;3.25;;
42146;SDS011;27815;43.410;11.852;2022-11-18T02:35:08;7.85;;;2.97;;
42146;SDS011;27815;43.410;11.852;2022-11-18T02:40:04;8.07;;;2.53;;
42146;SDS011;27815;43.410;11.852;2022-11-18T02:43:55;7.22;;;3.58;;
42146;SDS011;27815;43.410;11.852;2022-11-18T02:48:07;8.65;;;3.17;;
42146;SDS011;27815;43.410;11.852;2022-11-18T02:52:12;5.68;;;3.00;;
42146;SDS011;27815;43.410;11.852;2022-11-18T02:56:18;7.97;;;3.30;;
42146;SDS011;27815;43.410;11.852;2022-11-18T03:00:22;7.28;;;3.67;;
42146;SDS011;27815;43.410;11.852;2022-11-18T03:04:25;6.53;;;3.17;;
42146;SDS011;27815;43.410;11.852;2022-11-18T03:08:31;9.98;;;3.38;;
42146;SDS011;27815;43.410;11.852;2022-11-18T03:16:57;8.13;;;3.47;;
42146;SDS011;27815;43.410;11.852;2022-11-18T03:29:44;7.03;;;3.70;;
42146;SDS011;27815;43.410;11.852;2022-11-18T03:33:55;9.77;;;3.83;;
42146;SDS011;27815;43.410;11.852;2022-11-18T03:38:09;7.80;;;3.33;;
42146;SDS011;27815;43.410;11.852;2022-11-18T03:42:18;8.30;;;3.08;;
42146;SDS011;27815;43.410;11.852;2022-11-18T03:46:38;7.38;;;3.30;;
42146;SDS011;27815;43.410;11.852;2022-11-18T03:50:56;9.52;;;3.47;;
42146;SDS011;27815;43.410;11.852;2022-11-18T03:55:04;9.57;;;3.38;;
42146;SDS011;27815;43.410;11.852;2022-11-18T03:59:17;11.98;;;3.38;;
42146;SDS011;27815;43.410;11.852;2022-11-18T04:03:23;5.00;;;3.03;;
42146;SDS011;27815;43.410;11.852;2022-11-18T04:11:58;8.13;;;3.20;;
42146;SDS011;27815;43.410;11.852;2022-11-18T04:16:05;8.73;;;3.33;;
42146;SDS011;27815;43.410;11.852;2022-11-18T04:20:18;8.35;;;3.67;;
42146;SDS011;27815;43.410;11.852;2022-11-18T04:24:23;8.15;;;3.30;;
42146;SDS011;27815;43.410;11.852;2022-11-18T04:28:26;8.65;;;2.92;;
42146;SDS011;27815;43.410;11.852;2022-11-18T04:32:28;5.53;;;3.33;;
42146;SDS011;27815;43.410;11.852;2022-11-18T04:36:31;5.00;;;2.85;;
42146;SDS011;27815;43.410;11.852;2022-11-18T04:40:34;3.30;;;2.78;;
42146;SDS011;27815;43.410;11.852;2022-11-18T04:44:38;4.90;;;3.25;;
42146;SDS011;27815;43.410;11.852;2022-11-18T04:48:41;8.23;;;3.33;;
42146;SDS011;27815;43.410;11.852;2022-11-18T04:52:44;5.55;;;2.88;;
42146;SDS011;27815;43.410;11.852;2022-11-18T04:56:47;9.85;;;3.05;;
42146;SDS011;27815;43.410;11.852;2022-11-18T05:00:51;5.57;;;2.88;;
42146;SDS011;27815;43.410;11.852;2022-11-18T05:04:54;4.60;;;2.85;;
42146;SDS011;27815;43.410;11.852;2022-11-18T05:08:57;4.80;;;2.88;;
42146;SDS011;27815;43.410;11.852;2022-11-18T05:13:01;6.20;;;3.00;;
42146;SDS011;27815;43.410;11.852;2022-11-18T05:17:04;6.93;;;3.17;;
42146;SDS011;27815;43.410;11.852;2022-11-18T05:21:08;5.90;;;2.55;;
42146;SDS011;27815;43.410;11.852;2022-11-18T05:25:11;4.15;;;2.65;;
42146;SDS011;27815;43.410;11.852;2022-11-18T05:29:15;8.45;;;2.50;;
42146;SDS011;27815;43.410;11.852;2022-11-18T05:33:19;4.50;;;2.88;;
42146;SDS011;27815;43.410;11.852;2022-11-18T05:37:22;4.32;;;2.65;;
42146;SDS011;27815;43.410;11.852;2022-11-18T05:41:25;6.00;;;2.72;;
42146;SDS011;27815;43.410;11.852;2022-11-18T05:45:48;6.32;;;2.80;;
42146;SDS011;27815;43.410;11.852;2022-11-18T05:49:52;6.05;;;2.50;;
42146;SDS011;27815;43.410;11.852;2022-11-18T05:53:55;9.20;;;2.58;;
42146;SDS011;27815;43.410;11.852;2022-11-18T05:57:59;4.25;;;2.35;;
42146;SDS011;27815;43.410;11.852;2022-11-18T06:02:04;4.95;;;2.30;;
42146;SDS011;27815;43.410;11.852;2022-11-18T06:06:14;3.60;;;2.40;;
42146;SDS011;27815;43.410;11.852;2022-11-18T06:10:24;4.15;;;2.65;;
42146;SDS011;27815;43.410;11.852;2022-11-18T06:14:35;5.95;;;2.95;;
42146;SDS011;27815;43.410;11.852;2022-11-18T06:18:48;4.50;;;2.15;;
42146;SDS011;27815;43.410;11.852;2022-11-18T06:22:52;5.03;;;2.90;;
42146;SDS011;27815;43.410;11.852;2022-11-18T06:26:57;4.20;;;1.90;;
42146;SDS011;27815;43.410;11.852;2022-11-18T06:31:01;6.10;;;2.03;;
42146;SDS011;27815;43.410;11.852;2022-11-18T06:35:04;6.88;;;2.50;;
42146;SDS011;27815;43.410;11.852;2022-11-18T06:39:08;4.38;;;2.13;;
42146;SDS011;27815;43.410;11.852;2022-11-18T06:43:11;4.40;;;2.00;;
42146;SDS011;27815;43.410;11.852;2022-11-18T06:47:33;5.60;;;2.00;;
42146;SDS011;27815;43.410;11.852;2022-11-18T06:51:35;4.35;;;2.25;;
42146;SDS011;27815;43.410;11.852;2022-11-18T06:55:38;6.78;;;2.40;;
42146;SDS011;27815;43.410;11.852;2022-11-18T06:59:41;5.95;;;2.35;;
42146;SDS011;27815;43.410;11.852;2022-11-18T07:03:44;7.47;;;2.13;;
42146;SDS011;27815;43.410;11.852;2022-11-18T07:07:48;8.23;;;2.20;;
42146;SDS011;27815;43.410;11.852;2022-11-18T07:11:51;4.43;;;2.30;;
42146;SDS011;27815;43.410;11.852;2022-11-18T07:15:53;7.80;;;2.95;;
42146;SDS011;27815;43.410;11.852;2022-11-18T07:19:56;4.60;;;2.50;;
42146;SDS011;27815;43.410;11.852;2022-11-18T07:23:59;4.80;;;2.33;;
42146;SDS011;27815;43.410;11.852;2022-11-18T07:28:02;3.78;;;2.30;;
42146;SDS011;27815;43.410;11.852;2022-11-18T07:32:05;5.22;;;2.67;;
42146;SDS011;27815;43.410;11.852;2022-11-18T07:36:09;4.15;;;2.35;;
42146;SDS011;27815;43.410;11.852;2022-11-18T07:40:13;7.05;;;2.60;;
42146;SDS011;27815;43.410;11.852;2022-11-18T07:44:16;5.63;;;2.53;;
42146;SDS011;27815;43.410;11.852;2022-11-18T07:48:20;3.55;;;2.22;;
42146;SDS011;27815;43.410;11.852;2022-11-18T07:52:23;7.97;;;2.70;;
42146;SDS011;27815;43.410;11.852;2022-11-18T07:56:26;4.05;;;2.38;;
42146;SDS011;27815;43.410;11.852;2022-11-18T08:00:29;7.72;;;3.10;;
42146;SDS011;27815;43.410;11.852;2022-11-18T08:04:32;5.53;;;3.30;;
42146;SDS011;27815;43.410;11.852;2022-11-18T08:08:35;6.80;;;3.40;;
42146;SDS011;27815;43.410;11.852;2022-11-18T08:12:38;9.68;;;3.25;;
42146;SDS011;27815;43.410;11.852;2022-11-18T08:16:41;7.20;;;2.85;;
42146;SDS011;27815;43.410;11.852;2022-11-18T08:20:44;8.10;;;3.72;;
42146;SDS011;27815;43.410;11.852;2022-11-18T08:24:47;6.43;;;2.97;;
42146;SDS011;27815;43.410;11.852;2022-11-18T08:28:50;6.50;;;3.38;;
42146;SDS011;27815;43.410;11.852;2022-11-18T08:32:54;5.03;;;3.13;;
42146;SDS011;27815;43.410;11.852;2022-11-18T08:36:57;5.25;;;2.70;;
42146;SDS011;27815;43.410;11.852;2022-11-18T08:40:59;5.82;;;3.10;;
42146;SDS011;27815;43.410;11.852;2022-11-18T08:45:03;6.05;;;3.05;;
42146;SDS011;27815;43.410;11.852;2022-11-18T08:53:13;4.97;;;2.50;;
42146;SDS011;27815;43.410;11.852;2022-11-18T08:57:17;7.18;;;2.67;;
42146;SDS011;27815;43.410;11.852;2022-11-18T09:01:20;7.13;;;3.67;;
42146;SDS011;27815;43.410;11.852;2022-11-18T09:05:23;7.35;;;3.42;;
42146;SDS011;27815;43.410;11.852;2022-11-18T09:09:26;10.93;;;4.43;;
42146;SDS011;27815;43.410;11.852;2022-11-18T09:13:32;7.10;;;4.87;;
42146;SDS011;27815;43.410;11.852;2022-11-18T09:17:55;6.45;;;3.63;;
42146;SDS011;27815;43.410;11.852;2022-11-18T09:21:59;11.40;;;5.13;;
42146;SDS011;27815;43.410;11.852;2022-11-18T09:26:03;12.38;;;5.40;;
42146;SDS011;27815;43.410;11.852;2022-11-18T09:30:11;8.10;;;4.50;;
42146;SDS011;27815;43.410;11.852;2022-11-18T09:34:14;6.72;;;4.85;;
42146;SDS011;27815;43.410;11.852;2022-11-18T09:38:17;9.65;;;6.07;;
42146;SDS011;27815;43.410;11.852;2022-11-18T09:51:08;7.80;;;4.70;;
42146;SDS011;27815;43.410;11.852;2022-11-18T09:55:13;8.77;;;4.28;;
42146;SDS011;27815;43.410;11.852;2022-11-18T09:59:19;10.07;;;4.35;;
42146;SDS011;27815;43.410;11.852;2022-11-18T10:03:31;8.82;;;4.18;;
42146;SDS011;27815;43.410;11.852;2022-11-18T10:07:36;8.35;;;4.57;;
42146;SDS011;27815;43.410;11.852;2022-11-18T10:16:07;10.60;;;5.55;;
42146;SDS011;27815;43.410;11.852;2022-11-18T10:20:32;12.57;;;5.50;;
42146;SDS011;27815;43.410;11.852;2022-11-18T10:24:54;10.52;;;4.82;;
42146;SDS011;27815;43.410;11.852;2022-11-18T10:28:58;10.65;;;4.45;;
42146;SDS011;27815;43.410;11.852;2022-11-18T10:33:03;12.73;;;4.53;;
42146;SDS011;27815;43.410;11.852;2022-11-18T10:37:30;9.45;;;3.92;;
42146;SDS011;27815;43.410;11.852;2022-11-18T10:42:04;10.63;;;3.80;;
42146;SDS011;27815;43.410;11.852;2022-11-18T10:46:30;9.63;;;3.47;;
42146;SDS011;27815;43.410;11.852;2022-11-18T10:50:41;9.15;;;3.47;;
42146;SDS011;27815;43.410;11.852;2022-11-18T10:55:05;10.30;;;3.95;;
42146;SDS011;27815;43.410;11.852;2022-11-18T10:59:28;10.85;;;4.10;;
42146;SDS011;27815;43.410;11.852;2022-11-18T11:03:42;10.75;;;4.57;;
42146;SDS011;27815;43.410;11.852;2022-11-18T11:08:18;8.70;;;4.43;;
42146;SDS011;27815;43.410;11.852;2022-11-18T11:12:41;9.65;;;3.67;;
42146;SDS011;27815;43.410;11.852;2022-11-18T11:16:56;10.38;;;3.40;;
42146;SDS011;27815;43.410;11.852;2022-11-18T11:21:19;11.43;;;3.40;;
42146;SDS011;27815;43.410;11.852;2022-11-18T11:25:30;8.00;;;3.45;;
42146;SDS011;27815;43.410;11.852;2022-11-18T11:30:13;11.18;;;4.10;;
42146;SDS011;27815;43.410;11.852;2022-11-18T11:43:44;11.48;;;3.67;;
42146;SDS011;27815;43.410;11.852;2022-11-18T11:52:14;8.45;;;2.97;;
42146;SDS011;27815;43.410;11.852;2022-11-18T12:00:48;9.60;;;4.03;;
42146;SDS011;27815;43.410;11.852;2022-11-18T12:10:00;6.82;;;3.03;;
42146;SDS011;27815;43.410;11.852;2022-11-18T12:14:08;10.88;;;2.08;;
42146;SDS011;27815;43.410;11.852;2022-11-18T12:18:19;8.18;;;2.63;;
42146;SDS011;27815;43.410;11.852;2022-11-18T12:31:40;7.25;;;2.00;;
42146;SDS011;27815;43.410;11.852;2022-11-18T12:36:51;7.40;;;2.10;;
42146;SDS011;27815;43.410;11.852;2022-11-18T12:40:55;8.73;;;2.63;;
42146;SDS011;27815;43.410;11.852;2022-11-18T12:44:58;8.02;;;2.20;;
42146;SDS011;27815;43.410;11.852;2022-11-18T12:53:55;8.17;;;2.10;;
42146;SDS011;27815;43.410;11.852;2022-11-18T12:57:59;6.63;;;2.75;;
42146;SDS011;27815;43.410;11.852;2022-11-18T13:06:40;9.35;;;2.03;;
42146;SDS011;27815;43.410;11.852;2022-11-18T13:10:46;10.13;;;2.83;;
42146;SDS011;27815;43.410;11.852;2022-11-18T13:14:57;10.98;;;4.07;;
42146;SDS011;27815;43.410;11.852;2022-11-18T13:19:22;7.75;;;2.47;;
42146;SDS011;27815;43.410;11.852;2022-11-18T13:23:29;7.05;;;2.80;;
42146;SDS011;27815;43.410;11.852;2022-11-18T13:32:46;11.57;;;3.55;;
42146;SDS011;27815;43.410;11.852;2022-11-18T13:36:50;12.05;;;3.15;;
42146;SDS011;27815;43.410;11.852;2022-11-18T13:40:55;7.60;;;3.00;;
42146;SDS011;27815;43.410;11.852;2022-11-18T13:45:11;12.20;;;3.55;;
42146;SDS011;27815;43.410;11.852;2022-11-18T13:49:16;12.23;;;3.35;;
42146;SDS011;27815;43.410;11.852;2022-11-18T14:01:33;11.90;;;4.03;;
42146;SDS011;27815;43.410;11.852;2022-11-18T14:05:36;10.98;;;3.00;;
42146;SDS011;27815;43.410;11.852;2022-11-18T14:09:52;11.10;;;3.53;;
42146;SDS011;27815;43.410;11.852;2022-11-18T14:13:59;8.85;;;3.35;;
42146;SDS011;27815;43.410;11.852;2022-11-18T14:18:13;9.82;;;3.03;;
42146;SDS011;27815;43.410;11.852;2022-11-18T14:22:29;13.40;;;3.35;;
42146;SDS011;27815;43.410;11.852;2022-11-18T14:26:33;13.63;;;4.25;;
42146;SDS011;27815;43.410;11.852;2022-11-18T14:30:39;18.50;;;6.03;;
42146;SDS011;27815;43.410;11.852;2022-11-18T14:34:44;18.90;;;5.30;;
42146;SDS011;27815;43.410;11.852;2022-11-18T14:38:48;12.88;;;4.55;;
42146;SDS011;27815;43.410;11.852;2022-11-18T14:43:12;11.20;;;3.70;;
42146;SDS011;27815;43.410;11.852;2022-11-18T14:47:25;11.90;;;4.82;;
42146;SDS011;27815;43.410;11.852;2022-11-18T14:51:31;17.67;;;3.73;;
42146;SDS011;27815;43.410;11.852;2022-11-18T14:55:33;15.18;;;3.38;;
42146;SDS011;27815;43.410;11.852;2022-11-18T14:59:37;12.73;;;3.58;;
42146;SDS011;27815;43.410;11.852;2022-11-18T15:03:41;11.65;;;3.33;;
42146;SDS011;27815;43.410;11.852;2022-11-18T15:07:44;14.38;;;3.03;;
42146;SDS011;27815;43.410;11.852;2022-11-18T15:11:47;7.57;;;3.00;;
42146;SDS011;27815;43.410;11.852;2022-11-18T15:15:50;18.95;;;8.73;;
42146;SDS011;27815;43.410;11.852;2022-11-18T15:19:53;19.85;;;5.97;;
42146;SDS011;27815;43.410;11.852;2022-11-18T15:23:56;13.82;;;4.65;;
42146;SDS011;27815;43.410;11.852;2022-11-18T15:27:59;8.15;;;2.50;;
42146;SDS011;27815;43.410;11.852;2022-11-18T15:32:02;11.93;;;4.40;;
42146;SDS011;27815;43.410;11.852;2022-11-18T15:36:10;11.80;;;3.30;;
42146;SDS011;27815;43.410;11.852;2022-11-18T15:40:17;12.45;;;3.42;;
42146;SDS011;27815;43.410;11.852;2022-11-18T15:44:20;14.90;;;3.70;;
42146;SDS011;27815;43.410;11.852;2022-11-18T15:48:32;13.60;;;3.72;;
42146;SDS011;27815;43.410;11.852;2022-11-18T15:52:35;13.48;;;3.83;;
42146;SDS011;27815;43.410;11.852;2022-11-18T15:56:38;11.63;;;3.53;;
42146;SDS011;27815;43.410;11.852;2022-11-18T16:00:42;14.40;;;4.40;;
42146;SDS011;27815;43.410;11.852;2022-11-18T16:04:46;9.95;;;2.95;;
42146;SDS011;27815;43.410;11.852;2022-11-18T16:08:49;8.77;;;2.65;;
42146;SDS011;27815;43.410;11.852;2022-11-18T16:13:00;11.45;;;3.33;;
42146;SDS011;27815;43.410;11.852;2022-11-18T16:17:02;11.95;;;3.03;;
42146;SDS011;27815;43.410;11.852;2022-11-18T16:21:05;11.50;;;3.25;;
42146;SDS011;27815;43.410;11.852;2022-11-18T16:25:09;15.27;;;3.63;;
42146;SDS011;27815;43.410;11.852;2022-11-18T16:29:12;9.23;;;2.75;;
42146;SDS011;27815;43.410;11.852;2022-11-18T16:33:17;13.27;;;6.45;;
42146;SDS011;27815;43.410;11.852;2022-11-18T16:37:20;10.00;;;3.53;;
42146;SDS011;27815;43.410;11.852;2022-11-18T16:41:23;10.13;;;2.60;;
42146;SDS011;27815;43.410;11.852;2022-11-18T16:45:34;11.15;;;3.30;;
42146;SDS011;27815;43.410;11.852;2022-11-18T16:49:37;11.63;;;2.90;;
42146;SDS011;27815;43.410;11.852;2022-11-18T16:53:40;12.65;;;2.75;;
42146;SDS011;27815;43.410;11.852;2022-11-18T16:57:43;12.43;;;3.25;;
42146;SDS011;27815;43.410;11.852;2022-11-18T17:01:46;15.25;;;3.42;;
42146;SDS011;27815;43.410;11.852;2022-11-18T17:05:49;11.82;;;2.90;;
42146;SDS011;27815;43.410;11.852;2022-11-18T17:09:52;8.80;;;3.30;;
42146;SDS011;27815;43.410;11.852;2022-11-18T17:13:55;13.68;;;3.80;;
42146;SDS011;27815;43.410;11.852;2022-11-18T17:17:59;10.88;;;3.03;;
42146;SDS011;27815;43.410;11.852;2022-11-18T17:22:02;12.98;;;3.90;;
42146;SDS011;27815;43.410;11.852;2022-11-18T17:26:05;15.23;;;3.58;;
42146;SDS011;27815;43.410;11.852;2022-11-18T17:30:10;13.23;;;3.63;;
42146;SDS011;27815;43.410;11.852;2022-11-18T17:34:13;9.43;;;3.08;;
42146;SDS011;27815;43.410;11.852;2022-11-18T17:38:17;9.43;;;2.53;;
42146;SDS011;27815;43.410;11.852;2022-11-18T17:42:20;12.23;;;4.32;;
42146;SDS011;27815;43.410;11.852;2022-11-18T17:50:35;14.90;;;2.40;;
42146;SDS011;27815;43.410;11.852;2022-11-18T17:54:38;11.43;;;3.42;;
42146;SDS011;27815;43.410;11.852;2022-11-18T17:58:41;6.32;;;2.53;;
42146;SDS011;27815;43.410;11.852;2022-11-18T18:02:44;17.30;;;4.22;;
42146;SDS011;27815;43.410;11.852;2022-11-18T18:06:47;11.07;;;3.20;;
42146;SDS011;27815;43.410;11.852;2022-11-18T18:10:53;7.45;;;2.53;;
42146;SDS011;27815;43.410;11.852;2022-11-18T18:15:05;17.35;;;4.40;;
42146;SDS011;27815;43.410;11.852;2022-11-18T18:19:08;16.73;;;5.10;;
42146;SDS011;27815;43.410;11.852;2022-11-18T18:23:12;9.32;;;2.50;;
42146;SDS011;27815;43.410;11.852;2022-11-18T18:27:15;8.15;;;2.55;;
42146;SDS011;27815;43.410;11.852;2022-11-18T18:31:18;12.02;;;2.40;;
42146;SDS011;27815;43.410;11.852;2022-11-18T18:35:21;12.45;;;2.95;;
42146;SDS011;27815;43.410;11.852;2022-11-18T18:39:23;11.63;;;1.85;;
42146;SDS011;27815;43.410;11.852;2022-11-18T18:43:26;7.80;;;2.53;;
42146;SDS011;27815;43.410;11.852;2022-11-18T18:47:29;7.55;;;2.10;;
42146;SDS011;27815;43.410;11.852;2022-11-18T18:51:35;7.38;;;1.90;;
42146;SDS011;27815;43.410;11.852;2022-11-18T18:55:42;7.50;;;2.17;;
42146;SDS011;27815;43.410;11.852;2022-11-18T18:59:46;12.88;;;2.47;;
42146;SDS011;27815;43.410;11.852;2022-11-18T19:03:55;13.82;;;1.85;;
42146;SDS011;27815;43.410;11.852;2022-11-18T19:07:59;7.30;;;1.92;;
42146;SDS011;27815;43.410;11.852;2022-11-18T19:12:02;6.65;;;2.00;;
42146;SDS011;27815;43.410;11.852;2022-11-18T19:16:23;8.55;;;2.03;;
42146;SDS011;27815;43.410;11.852;2022-11-18T19:20:26;7.18;;;2.33;;
42146;SDS011;27815;43.410;11.852;2022-11-18T19:24:35;9.60;;;2.15;;
42146;SDS011;27815;43.410;11.852;2022-11-18T19:28:51;12.90;;;4.25;;
42146;SDS011;27815;43.410;11.852;2022-11-18T19:32:54;10.52;;;2.95;;
42146;SDS011;27815;43.410;11.852;2022-11-18T19:36:57;9.50;;;2.50;;
42146;SDS011;27815;43.410;11.852;2022-11-18T19:41:03;10.63;;;3.25;;
42146;SDS011;27815;43.410;11.852;2022-11-18T19:45:08;9.87;;;2.30;;
42146;SDS011;27815;43.410;11.852;2022-11-18T19:49:12;10.32;;;2.80;;
42146;SDS011;27815;43.410;11.852;2022-11-18T19:53:15;8.65;;;2.58;;
42146;SDS011;27815;43.410;11.852;2022-11-18T19:57:33;12.05;;;3.13;;
42146;SDS011;27815;43.410;11.852;2022-11-18T20:01:36;11.82;;;3.67;;
42146;SDS011;27815;43.410;11.852;2022-11-18T20:05:40;20.80;;;7.00;;
42146;SDS011;27815;43.410;11.852;2022-11-18T20:09:55;15.70;;;4.45;;
42146;SDS011;27815;43.410;11.852;2022-11-18T20:13:58;10.75;;;4.65;;
42146;SDS011;27815;43.410;11.852;2022-11-18T20:18:02;8.13;;;3.15;;
42146;SDS011;27815;43.410;11.852;2022-11-18T20:22:07;9.68;;;3.00;;
42146;SDS011;27815;43.410;11.852;2022-11-18T20:26:14;10.93;;;5.18;;
42146;SDS011;27815;43.410;11.852;2022-11-18T20:30:19;16.27;;;3.90;;
42146;SDS011;27815;43.410;11.852;2022-11-18T20:34:22;13.50;;;3.92;;
42146;SDS011;27815;43.410;11.852;2022-11-18T20:38:25;20.67;;;6.65;;
42146;SDS011;27815;43.410;11.852;2022-11-18T20:42:28;17.80;;;7.70;;
42146;SDS011;27815;43.410;11.852;2022-11-18T20:46:49;17.40;;;7.97;;
42146;SDS011;27815;43.410;11.852;2022-11-18T20:50:52;17.10;;;6.30;;
42146;SDS011;27815;43.410;11.852;2022-11-18T20:54:55;21.05;;;11.02;;
42146;SDS011;27815;43.410;11.852;2022-11-18T20:59:05;18.27;;;9.77;;
42146;SDS011;27815;43.410;11.852;2022-11-18T21:03:08;13.32;;;4.38;;
42146;SDS011;27815;43.410;11.852;2022-11-18T21:07:13;17.02;;;7.97;;
42146;SDS011;27815;43.410;11.852;2022-11-18T21:11:16;18.52;;;6.93;;
42146;SDS011;27815;43.410;11.852;2022-11-18T21:15:19;17.35;;;4.35;;
42146;SDS011;27815;43.410;11.852;2022-11-18T21:19:24;15.77;;;5.07;;
42146;SDS011;27815;43.410;11.852;2022-11-18T21:23:27;14.00;;;3.60;;
42146;SDS011;27815;43.410;11.852;2022-11-18T21:27:30;12.35;;;3.20;;
42146;SDS011;27815;43.410;11.852;2022-11-18T21:31:33;7.13;;;2.58;;
42146;SDS011;27815;43.410;11.852;2022-11-18T21:35:36;8.57;;;3.38;;
42146;SDS011;27815;43.410;11.852;2022-11-18T21:39:39;11.32;;;2.75;;
42146;SDS011;27815;43.410;11.852;2022-11-18T21:43:42;12.30;;;3.30;;
42146;SDS011;27815;43.410;11.852;2022-11-18T21:48:05;10.73;;;2.83;;
42146;SDS011;27815;43.410;11.852;2022-11-18T21:52:08;14.30;;;2.72;;
42146;SDS011;27815;43.410;11.852;2022-11-18T21:56:12;12.82;;;2.42;;
42146;SDS011;27815;43.410;11.852;2022-11-18T22:00:22;15.40;;;4.25;;
42146;SDS011;27815;43.410;11.852;2022-11-18T22:04:25;16.08;;;2.63;;
42146;SDS011;27815;43.410;11.852;2022-11-18T22:08:46;13.05;;;4.80;;
42146;SDS011;27815;43.410;11.852;2022-11-18T22:12:49;16.85;;;7.10;;
42146;SDS011;27815;43.410;11.852;2022-11-18T22:16:53;17.80;;;7.97;;
42146;SDS011;27815;43.410;11.852;2022-11-18T22:20:59;12.50;;;6.88;;
42146;SDS011;27815;43.410;11.852;2022-11-18T22:25:03;13.07;;;6.28;;
42146;SDS011;27815;43.410;11.852;2022-11-18T22:29:07;14.27;;;6.13;;
42146;SDS011;27815;43.410;11.852;2022-11-18T22:33:10;15.70;;;7.05;;
42146;SDS011;27815;43.410;11.852;2022-11-18T22:37:12;12.75;;;6.60;;
42146;SDS011;27815;43.410;11.852;2022-11-18T22:41:16;16.50;;;7.50;;
42146;SDS011;27815;43.410;11.852;2022-11-18T22:45:40;15.68;;;6.18;;
42146;SDS011;27815;43.410;11.852;2022-11-18T22:49:43;17.67;;;7.15;;
42146;SDS011;27815;43.410;11.852;2022-11-18T22:53:46;15.35;;;6.70;;
42146;SDS011;27815;43.410;11.852;2022-11-18T22:57:49;15.65;;;7.55;;
42146;SDS011;27815;43.410;11.852;2022-11-18T23:01:55;14.73;;;7.20;;
42146;SDS011;27815;43.410;11.852;2022-11-18T23:05:58;15.85;;;7.05;;
42146;SDS011;27815;43.410;11.852;2022-11-18T23:10:01;24.30;;;8.45;;
42146;SDS011;27815;43.410;11.852;2022-11-18T23:14:05;16.17;;;8.70;;
42146;SDS011;27815;43.410;11.852;2022-11-18T23:18:09;23.33;;;8.13;;
42146;SDS011;27815;43.410;11.852;2022-11-18T23:22:13;13.48;;;7.32;;
42146;SDS011;27815;43.410;11.852;2022-11-18T23:26:16;14.50;;;9.02;;
42146;SDS011;27815;43.410;11.852;2022-11-18T23:30:19;22.75;;;10.63;;
42146;SDS011;27815;43.410;11.852;2022-11-18T23:34:22;17.42;;;9.40;;
42146;SDS011;27815;43.410;11.852;2022-11-18T23:38:28;18.02;;;9.90;;
42146;SDS011;27815;43.410;11.852;2022-11-18T23:42:33;18.73;;;8.85;;
42146;SDS011;27815;43.410;11.852;2022-11-18T23:46:36;21.58;;;10.40;;
42146;SDS011;27815;43.410;11.852;2022-11-18T23:50:39;27.42;;;11.85;;
42146;SDS011;27815;43.410;11.852;2022-11-18T23:54:42;20.40;;;10.75;;
42146;SDS011;27815;43.410;11.852;2022-11-18T23:58:46;15.85;;;9.25;;
